Time;durP1;ratioP1;P1;durP2;ratioP2;P2;SDS_P1;SDS_P2;PMS_P1;PMS_P2;Temp;Humidity;BMP_temperature;BMP_pressure;BME280_temperature;BME280_humidity;BME280_pressure;Samples;Min_cycle;Max_cycle;Signal;HPM_P1;HPM_P2
2021/12/01 00:01:08;;;;;;;56.67;38.38;;;9.80;99.90;;;;;;4769725;29;20050;-81
2021/12/01 00:03:35;;;;;;;50.78;34.53;;;9.70;99.90;;;;;;4766029;29;20046;-80
2021/12/01 00:06:02;;;;;;;67.97;40.15;;;9.80;99.90;;;;;;4762727;29;20066;-80
2021/12/01 00:08:29;;;;;;;52.33;34.65;;;9.80;99.90;;;;;;4765552;29;20049;-80
2021/12/01 00:10:56;;;;;;;54.88;34.13;;;9.80;99.90;;;;;;4770285;29;20406;-81
2021/12/01 00:13:23;;;;;;;56.35;33.10;;;9.80;99.90;;;;;;4752761;29;20061;-81
2021/12/01 00:15:50;;;;;;;38.80;26.27;;;9.80;99.90;;;;;;4758460;29;20381;-81
2021/12/01 00:18:17;;;;;;;37.28;26.75;;;9.80;99.90;;;;;;4765033;29;20053;-80
2021/12/01 00:20:43;;;;;;;32.38;24.25;;;9.90;99.90;;;;;;4780473;29;20406;-81
2021/12/01 00:23:10;;;;;;;32.58;23.55;;;9.80;99.90;;;;;;4782368;29;20034;-81
2021/12/01 00:25:39;;;;;;;43.15;25.00;;;9.80;99.90;;;;;;4778681;29;20039;-81
2021/12/01 00:28:07;;;;;;;37.17;23.83;;;9.90;99.90;;;;;;4747344;29;20034;-80
2021/12/01 00:30:34;;;;;;;24.33;18.83;;;9.90;99.90;;;;;;4767078;29;20054;-80
2021/12/01 00:33:00;;;;;;;36.33;21.27;;;9.90;99.90;;;;;;4779822;29;20035;-80
2021/12/01 00:35:27;;;;;;;24.70;18.98;;;9.90;99.90;;;;;;4759081;29;20035;-80
2021/12/01 00:37:54;;;;;;;20.77;16.15;;;9.90;99.90;;;;;;4782033;29;20053;-80
2021/12/01 00:40:21;;;;;;;26.25;18.10;;;9.90;99.90;;;;;;4755050;29;20043;-80
2021/12/01 00:42:47;;;;;;;18.70;15.35;;;9.90;99.90;;;;;;4783440;29;20484;-80
2021/12/01 00:45:19;;;;;;;22.73;14.90;;;10.00;99.90;;;;;;4770580;29;20395;-80
2021/12/01 00:47:50;;;;;;;21.80;14.80;;;10.00;99.90;;;;;;4744000;29;20047;-80
2021/12/01 00:50:23;;;;;;;14.95;12.73;;;10.00;99.90;;;;;;4755508;29;20312;-80
2021/12/01 00:52:52;;;;;;;18.00;12.73;;;10.00;99.90;;;;;;4787705;29;20038;-80
2021/12/01 00:55:18;;;;;;;13.77;11.30;;;10.00;99.90;;;;;;4765075;29;20041;-80
2021/12/01 00:57:45;;;;;;;12.05;10.30;;;10.10;99.90;;;;;;4760009;29;20038;-81
2021/12/01 01:00:13;;;;;;;12.15;9.43;;;10.00;99.90;;;;;;4784386;29;20046;-80
2021/12/01 01:02:40;;;;;;;14.77;9.40;;;10.00;99.90;;;;;;4797548;29;20046;-81
2021/12/01 01:05:07;;;;;;;11.02;8.98;;;10.00;99.90;;;;;;4769963;29;20053;-80
2021/12/01 01:07:34;;;;;;;8.20;7.30;;;10.00;99.90;;;;;;4776713;29;20043;-81
2021/12/01 01:10:16;;;;;;;10.40;8.13;;;10.00;99.90;;;;;;4767622;29;20046;-81
2021/12/01 01:18:14;;;;;;;13.48;9.18;;;10.10;99.90;;;;;;4797256;29;20054;-81
2021/12/01 01:20:41;;;;;;;8.70;6.95;;;10.10;99.90;;;;;;4765182;29;20050;-81
2021/12/01 01:23:07;;;;;;;11.52;8.55;;;10.10;99.90;;;;;;4795625;29;20146;-80
2021/12/01 01:25:34;;;;;;;10.25;7.50;;;10.10;99.90;;;;;;4767528;29;20043;-80
2021/12/01 01:28:01;;;;;;;10.77;8.30;;;10.10;99.90;;;;;;4767806;29;20391;-81
2021/12/01 01:30:27;;;;;;;10.35;8.77;;;10.10;99.90;;;;;;4752203;29;20047;-80
2021/12/01 01:32:54;;;;;;;10.15;8.95;;;10.10;99.90;;;;;;4775546;29;20364;-80
2021/12/01 01:35:20;;;;;;;11.13;9.00;;;10.10;99.90;;;;;;4764305;29;20067;-80
2021/12/01 01:37:47;;;;;;;13.52;9.50;;;10.10;99.90;;;;;;4762107;29;20050;-78
2021/12/01 01:40:13;;;;;;;12.43;9.63;;;10.10;99.90;;;;;;4768802;29;20046;-81
2021/12/01 01:42:40;;;;;;;12.20;8.93;;;10.10;99.90;;;;;;4788769;29;20055;-81
2021/12/01 01:45:07;;;;;;;10.35;8.15;;;10.10;99.90;;;;;;4780847;29;20050;-81
2021/12/01 01:47:33;;;;;;;10.23;8.15;;;10.10;99.90;;;;;;4767783;29;20051;-80
2021/12/01 01:50:15;;;;;;;8.68;7.50;;;10.10;99.90;;;;;;4767884;29;20392;-81
2021/12/01 01:52:41;;;;;;;11.70;8.13;;;10.10;99.90;;;;;;4770139;29;20050;-80
2021/12/01 01:55:08;;;;;;;9.18;6.82;;;10.10;99.90;;;;;;4759938;29;20483;-80
2021/12/01 01:57:34;;;;;;;8.80;6.35;;;10.10;99.90;;;;;;4763027;29;20050;-80
2021/12/01 02:00:02;;;;;;;6.85;5.70;;;10.10;99.90;;;;;;4783303;29;20050;-81
2021/12/01 02:02:28;;;;;;;7.18;5.82;;;10.10;99.90;;;;;;4784638;29;20398;-81
2021/12/01 02:04:57;;;;;;;8.70;5.60;;;10.10;99.90;;;;;;4773811;29;20509;-81
2021/12/01 02:07:23;;;;;;;6.47;5.57;;;10.10;99.90;;;;;;4768444;29;20043;-81
2021/12/01 02:09:50;;;;;;;8.18;4.97;;;10.00;99.90;;;;;;4769669;29;20061;-82
2021/12/01 02:12:16;;;;;;;7.50;4.93;;;10.00;99.90;;;;;;4798602;29;20360;-81
2021/12/01 02:14:43;;;;;;;5.75;4.72;;;10.10;99.90;;;;;;4772560;29;20509;-81
2021/12/01 02:17:09;;;;;;;5.88;4.80;;;10.00;99.90;;;;;;4754808;29;20503;-81
2021/12/01 02:19:39;;;;;;;7.63;4.57;;;10.00;99.90;;;;;;4763467;29;20042;-78
2021/12/01 02:22:06;;;;;;;5.35;4.22;;;10.00;99.90;;;;;;4785559;29;20034;-78
2021/12/01 02:24:32;;;;;;;6.45;4.88;;;10.00;99.90;;;;;;4778856;29;20043;-78
2021/12/01 02:26:59;;;;;;;5.82;4.60;;;10.00;99.90;;;;;;4768806;29;20043;-78
2021/12/01 02:29:26;;;;;;;7.00;4.70;;;10.00;99.90;;;;;;4761361;29;20046;-78
2021/12/01 02:31:54;;;;;;;4.93;4.40;;;9.90;99.90;;;;;;4792346;29;20494;-78
2021/12/01 02:34:23;;;;;;;6.75;5.25;;;9.90;99.90;;;;;;4793101;29;20053;-78
2021/12/01 02:36:54;;;;;;;7.43;4.50;;;9.90;99.90;;;;;;4779921;29;20534;-78
2021/12/01 02:39:21;;;;;;;9.77;4.15;;;9.90;99.90;;;;;;4794100;29;20043;-78
2021/12/01 02:41:53;;;;;;;7.68;4.65;;;9.90;99.90;;;;;;4788629;29;20035;-78
2021/12/01 02:44:20;;;;;;;5.95;4.65;;;9.80;99.90;;;;;;4806161;29;20510;-78
2021/12/01 02:46:47;;;;;;;6.63;5.13;;;9.90;99.90;;;;;;4787541;29;20073;-78
2021/12/01 02:49:19;;;;;;;5.45;4.40;;;9.80;99.90;;;;;;4780577;29;20031;-78
2021/12/01 02:51:48;;;;;;;4.80;4.30;;;9.80;99.90;;;;;;4785494;29;20045;-76
2021/12/01 02:54:15;;;;;;;4.97;4.47;;;9.80;99.90;;;;;;4806167;29;20498;-77
2021/12/01 02:56:46;;;;;;;5.53;5.03;;;9.70;99.90;;;;;;4771332;29;20050;-77
2021/12/01 02:59:16;;;;;;;5.45;3.95;;;9.80;99.90;;;;;;4791426;29;20038;-77
2021/12/01 03:01:44;;;;;;;5.43;4.28;;;9.70;99.90;;;;;;4794185;29;20039;-77
2021/12/01 03:04:11;;;;;;;5.22;4.55;;;9.70;99.90;;;;;;4782993;29;20043;-78
2021/12/01 03:06:38;;;;;;;7.28;5.93;;;9.60;99.90;;;;;;4762482;29;20039;-77
2021/12/01 03:09:06;;;;;;;5.38;4.32;;;9.70;99.90;;;;;;4802199;29;20043;-77
2021/12/01 03:11:34;;;;;;;5.43;4.68;;;9.60;99.90;;;;;;4787552;29;20042;-77
2021/12/01 03:14:00;;;;;;;5.70;4.57;;;9.60;99.90;;;;;;4789772;29;20403;-77
2021/12/01 03:16:27;;;;;;;4.57;4.10;;;9.60;99.90;;;;;;4788026;29;20042;-77
2021/12/01 03:18:53;;;;;;;4.55;4.05;;;9.50;99.90;;;;;;4799273;29;20043;-77
2021/12/01 03:21:20;;;;;;;4.80;4.25;;;9.60;99.90;;;;;;4785613;29;20082;-77
2021/12/01 03:23:46;;;;;;;6.13;4.90;;;9.50;99.90;;;;;;4809980;29;20054;-78
2021/12/01 03:26:13;;;;;;;4.88;4.30;;;9.50;99.90;;;;;;4785232;29;20495;-78
2021/12/01 03:28:40;;;;;;;4.45;4.05;;;9.50;99.90;;;;;;4793221;29;20050;-78
2021/12/01 03:31:07;;;;;;;4.13;3.47;;;9.50;99.90;;;;;;4787644;29;20499;-78
2021/12/01 03:33:33;;;;;;;4.35;3.45;;;9.50;99.90;;;;;;4787433;29;20487;-78
2021/12/01 03:36:00;;;;;;;5.47;3.47;;;9.40;99.90;;;;;;4772711;29;20053;-78
2021/12/01 03:38:27;;;;;;;4.40;3.65;;;9.40;99.90;;;;;;4776080;29;20042;-76
2021/12/01 03:40:56;;;;;;;3.08;2.78;;;9.40;99.90;;;;;;4792926;29;20043;-80
2021/12/01 03:43:23;;;;;;;3.50;3.20;;;9.40;99.90;;;;;;4805380;29;20062;-78
2021/12/01 03:45:51;;;;;;;3.60;3.22;;;9.30;99.90;;;;;;4775283;29;20039;-80
2021/12/01 03:48:21;;;;;;;4.95;2.75;;;9.40;99.90;;;;;;4768849;29;20058;-80
2021/12/01 03:50:49;;;;;;;5.47;4.07;;;9.40;99.90;;;;;;4770643;29;20030;-80
2021/12/01 03:53:28;;;;;;;3.63;3.25;;;9.30;99.90;;;;;;4771306;29;20042;-81
2021/12/01 03:56:25;;;;;;;3.78;3.10;;;9.30;99.90;;;;;;4769331;29;20046;-80
2021/12/01 03:58:53;;;;;;;7.82;5.07;;;9.30;99.90;;;;;;4792283;29;20034;-77
2021/12/01 04:01:20;;;;;;;9.90;8.45;;;9.30;99.90;;;;;;4777840;29;20046;-78
2021/12/01 04:03:46;;;;;;;4.97;4.47;;;9.30;99.90;;;;;;4771112;29;20411;-77
2021/12/01 04:06:12;;;;;;;4.90;4.32;;;9.30;99.90;;;;;;4779247;29;20047;-75
2021/12/01 04:08:40;;;;;;;4.25;3.47;;;9.30;99.90;;;;;;4807762;29;20043;-77
2021/12/01 04:11:06;;;;;;;5.55;4.85;;;9.20;99.90;;;;;;4775763;29;20054;-77
2021/12/01 04:13:33;;;;;;;5.78;4.90;;;9.20;99.90;;;;;;4806226;29;20475;-76
2021/12/01 04:15:59;;;;;;;7.07;4.45;;;9.20;99.90;;;;;;4797891;29;20046;-77
2021/12/01 04:18:26;;;;;;;4.18;3.67;;;9.20;99.90;;;;;;4801140;29;20041;-76
2021/12/01 04:20:53;;;;;;;3.60;3.28;;;9.20;99.90;;;;;;4807881;29;20047;-76
2021/12/01 04:23:20;;;;;;;3.92;3.53;;;9.10;99.90;;;;;;4807929;29;20519;-76
2021/12/01 04:25:46;;;;;;;4.53;3.47;;;9.10;99.90;;;;;;4786411;29;20035;-76
2021/12/01 04:28:13;;;;;;;4.13;3.70;;;9.10;99.90;;;;;;4778320;29;20513;-76
2021/12/01 04:30:39;;;;;;;5.03;3.88;;;9.10;99.90;;;;;;4805478;29;20480;-76
2021/12/01 04:33:06;;;;;;;4.35;3.78;;;9.10;99.90;;;;;;4787854;29;20031;-78
2021/12/01 04:35:33;;;;;;;5.18;3.10;;;9.10;99.90;;;;;;4786394;29;20038;-77
2021/12/01 04:38:00;;;;;;;4.13;3.72;;;9.10;99.90;;;;;;4788221;29;20063;-78
2021/12/01 04:40:27;;;;;;;4.07;3.38;;;9.10;99.90;;;;;;4788125;29;20392;-77
2021/12/01 04:42:54;;;;;;;4.78;3.95;;;9.00;99.90;;;;;;4788166;29;20064;-77
2021/12/01 04:45:22;;;;;;;5.72;4.05;;;9.00;99.90;;;;;;4783415;29;20086;-77
2021/12/01 04:47:52;;;;;;;6.72;5.05;;;9.00;99.90;;;;;;4771923;29;20046;-77
2021/12/01 04:50:21;;;;;;;5.47;4.15;;;9.00;99.90;;;;;;4799838;29;20387;-77
2021/12/01 04:52:49;;;;;;;4.53;3.58;;;9.00;99.90;;;;;;4789770;29;20039;-76
2021/12/01 04:55:15;;;;;;;6.03;4.13;;;9.00;99.90;;;;;;4787844;29;20038;-77
2021/12/01 04:57:43;;;;;;;4.40;3.90;;;9.00;99.90;;;;;;4806040;29;20035;-77
2021/12/01 05:00:15;;;;;;;4.85;4.22;;;9.00;99.90;;;;;;4768385;29;20032;-77
2021/12/01 05:02:41;;;;;;;5.40;4.22;;;9.00;99.90;;;;;;4769250;29;20074;-80
2021/12/01 05:05:08;;;;;;;4.90;4.30;;;9.00;99.90;;;;;;4774072;29;20528;-80
2021/12/01 05:07:35;;;;;;;5.78;4.18;;;8.90;99.90;;;;;;4774182;29;20060;-80
2021/12/01 05:10:02;;;;;;;4.82;4.43;;;8.90;99.90;;;;;;4793444;29;20436;-79
2021/12/01 05:12:29;;;;;;;5.75;5.20;;;8.90;99.90;;;;;;4787002;29;20047;-80
2021/12/01 05:14:56;;;;;;;5.35;4.20;;;8.90;99.90;;;;;;4785063;29;20039;-76
2021/12/01 05:17:22;;;;;;;5.75;5.22;;;8.90;99.90;;;;;;4773552;29;20047;-76
2021/12/01 05:19:49;;;;;;;6.15;5.32;;;8.90;99.90;;;;;;4751283;29;20395;-80
2021/12/01 05:22:15;;;;;;;6.20;5.30;;;8.90;99.90;;;;;;4775325;29;20543;-81
2021/12/01 05:24:42;;;;;;;6.28;5.47;;;8.90;99.90;;;;;;4768282;29;20046;-80
2021/12/01 05:27:12;;;;;;;5.75;5.15;;;8.80;99.90;;;;;;4806118;29;20034;-79
2021/12/01 05:29:38;;;;;;;6.28;5.28;;;8.80;99.90;;;;;;4772002;29;20400;-80
2021/12/01 05:32:05;;;;;;;4.78;4.25;;;8.80;99.90;;;;;;4768844;29;20062;-80
2021/12/01 05:34:32;;;;;;;7.63;6.35;;;8.80;99.90;;;;;;4760471;29;20050;-80
2021/12/01 05:37:01;;;;;;;8.27;7.05;;;8.80;99.90;;;;;;4774153;29;20044;-80
2021/12/01 05:39:28;;;;;;;5.78;5.22;;;8.80;99.90;;;;;;4767042;29;20392;-83
2021/12/01 05:41:57;;;;;;;4.85;4.22;;;8.70;99.90;;;;;;4794031;29;20039;-81
2021/12/01 05:44:25;;;;;;;6.00;3.95;;;8.70;99.90;;;;;;4790921;29;20039;-81
2021/12/01 05:46:51;;;;;;;4.88;3.53;;;8.80;99.90;;;;;;4785558;29;20059;-80
2021/12/01 05:49:25;;;;;;;3.88;3.47;;;8.80;99.90;;;;;;4793386;29;20066;-81
2021/12/01 05:51:52;;;;;;;4.35;2.80;;;8.70;99.90;;;;;;4754197;29;20035;-81
2021/12/01 05:54:20;;;;;;;11.20;5.43;;;8.70;99.90;;;;;;4796096;29;20036;-84
2021/12/01 05:56:46;;;;;;;6.13;3.95;;;8.70;99.90;;;;;;4760093;29;20039;-82
2021/12/01 05:59:17;;;;;;;3.65;2.53;;;8.70;99.90;;;;;;4787329;29;20034;-81
2021/12/01 06:01:55;;;;;;;5.43;2.53;;;8.70;99.90;;;;;;4776175;29;20550;-81
2021/12/01 06:04:40;;;;;;;3.13;2.78;;;8.70;99.90;;;;;;4768847;29;20050;-78
2021/12/01 06:07:12;;;;;;;3.60;3.00;;;8.70;99.90;;;;;;4775542;29;20035;-78
2021/12/01 06:09:42;;;;;;;3.80;3.03;;;8.70;99.90;;;;;;4787168;29;20035;-78
2021/12/01 06:12:16;;;;;;;6.72;2.58;;;8.70;99.90;;;;;;4773629;29;20050;-78
2021/12/01 06:14:44;;;;;;;4.78;3.00;;;8.70;99.90;;;;;;4772638;29;20043;-78
2021/12/01 06:17:14;;;;;;;3.53;2.55;;;8.70;99.90;;;;;;4775432;29;20058;-78
2021/12/01 06:19:43;;;;;;;3.40;2.63;;;8.60;99.90;;;;;;4806365;29;20047;-77
2021/12/01 06:22:10;;;;;;;4.18;2.50;;;8.70;99.90;;;;;;4775101;29;20050;-77
2021/12/01 06:24:37;;;;;;;2.53;1.77;;;8.60;99.90;;;;;;4787004;29;20047;-80
2021/12/01 06:27:06;;;;;;;2.40;1.67;;;8.60;99.90;;;;;;4777227;29;20057;-81
2021/12/01 06:29:36;;;;;;;2.78;2.38;;;8.60;99.90;;;;;;4783049;29;20061;-78
2021/12/01 06:32:03;;;;;;;2.70;1.60;;;8.60;99.90;;;;;;4794058;29;20470;-78
2021/12/01 06:34:30;;;;;;;2.60;1.63;;;8.60;99.90;;;;;;4799183;29;20050;-78
2021/12/01 06:36:56;;;;;;;2.30;1.10;;;8.60;99.90;;;;;;4793328;29;20592;-78
2021/12/01 06:39:23;;;;;;;2.40;1.45;;;8.60;99.90;;;;;;4792352;29;20463;-79
2021/12/01 06:41:49;;;;;;;2.05;1.13;;;8.60;99.90;;;;;;4773519;29;20479;-77
2021/12/01 06:44:16;;;;;;;1.80;1.17;;;8.60;99.90;;;;;;4773194;29;20061;-77
2021/12/01 06:46:42;;;;;;;1.73;1.30;;;8.60;99.90;;;;;;4810434;29;20035;-77
2021/12/01 06:49:08;;;;;;;2.67;1.88;;;8.60;99.90;;;;;;4768009;29;20403;-77
2021/12/01 06:51:35;;;;;;;2.55;1.80;;;8.60;99.90;;;;;;4792262;29;20047;-77
2021/12/01 06:54:01;;;;;;;2.15;1.20;;;8.60;99.90;;;;;;4790577;29;20046;-77
2021/12/01 06:56:28;;;;;;;2.00;1.45;;;8.60;99.90;;;;;;4805111;29;20050;-77
2021/12/01 06:58:54;;;;;;;1.48;1.35;;;8.60;99.90;;;;;;4789878;29;20049;-77
2021/12/01 07:01:21;;;;;;;2.05;1.58;;;8.60;99.90;;;;;;4790156;29;20038;-77
2021/12/01 07:03:47;;;;;;;2.63;1.88;;;8.60;99.90;;;;;;4786065;29;20519;-78
2021/12/01 07:06:14;;;;;;;1.73;1.10;;;8.60;99.90;;;;;;4769878;29;20039;-77
2021/12/01 07:08:40;;;;;;;2.20;1.83;;;8.60;99.90;;;;;;4814067;29;20042;-78
2021/12/01 07:11:07;;;;;;;2.00;1.40;;;8.60;99.90;;;;;;4780022;29;20404;-81
2021/12/01 07:13:36;;;;;;;3.03;1.40;;;8.60;99.90;;;;;;4772753;29;20054;-81
2021/12/01 07:16:03;;;;;;;1.95;1.38;;;8.60;99.90;;;;;;4753602;29;20062;-80
2021/12/01 07:18:36;;;;;;;1.50;1.30;;;8.60;99.90;;;;;;4772581;29;20039;-78
2021/12/01 07:21:04;;;;;;;2.28;1.90;;;8.60;99.90;;;;;;4775864;29;20046;-77
2021/12/01 07:23:30;;;;;;;1.65;1.38;;;8.60;99.90;;;;;;4789045;29;20039;-78
2021/12/01 07:26:01;;;;;;;2.33;1.92;;;8.60;99.90;;;;;;4772984;29;20043;-77
2021/12/01 07:28:28;;;;;;;1.77;1.30;;;8.60;99.90;;;;;;4759467;29;20039;-77
2021/12/01 07:30:54;;;;;;;4.22;2.00;;;8.60;99.90;;;;;;4773449;29;20049;-76
2021/12/01 07:33:21;;;;;;;4.13;2.67;;;8.60;99.90;;;;;;4773401;29;20035;-77
2021/12/01 07:35:47;;;;;;;3.65;1.80;;;8.70;99.90;;;;;;4793657;29;20043;-78
2021/12/01 07:38:14;;;;;;;2.00;1.70;;;8.70;99.90;;;;;;4774861;29;20046;-77
2021/12/01 07:40:40;;;;;;;4.05;2.05;;;8.70;99.90;;;;;;4787593;29;20146;-77
2021/12/01 07:43:06;;;;;;;2.15;1.95;;;8.70;99.90;;;;;;4769877;29;20061;-77
2021/12/01 07:45:33;;;;;;;2.40;2.20;;;8.70;99.90;;;;;;4787857;29;20058;-77
2021/12/01 07:47:59;;;;;;;3.72;2.40;;;8.70;99.90;;;;;;4775864;29;20046;-77
2021/12/01 07:50:26;;;;;;;2.60;1.98;;;8.70;99.90;;;;;;4789548;29;20049;-77
2021/12/01 07:52:52;;;;;;;3.25;2.55;;;8.70;99.90;;;;;;4792219;29;20049;-77
2021/12/01 07:55:22;;;;;;;2.72;2.33;;;8.70;99.90;;;;;;4773220;29;20035;-77
2021/12/01 07:57:48;;;;;;;3.80;3.00;;;8.70;99.90;;;;;;4788382;29;20031;-77
2021/12/01 08:00:15;;;;;;;6.40;3.83;;;8.80;99.90;;;;;;4749843;29;20039;-77
2021/12/01 08:02:42;;;;;;;4.63;3.85;;;8.80;99.90;;;;;;4769856;29;20491;-77
2021/12/01 08:05:09;;;;;;;4.10;3.35;;;8.80;99.90;;;;;;4808970;29;20050;-78
2021/12/01 08:07:36;;;;;;;4.13;3.67;;;8.80;99.90;;;;;;4770921;29;20055;-78
2021/12/01 08:10:04;;;;;;;4.95;4.10;;;8.80;99.90;;;;;;4788284;29;20054;-77
2021/12/01 08:12:33;;;;;;;6.30;4.30;;;8.80;99.90;;;;;;4769640;29;20043;-78
2021/12/01 08:15:02;;;;;;;5.15;4.65;;;8.80;99.90;;;;;;4788884;29;20480;-77
2021/12/01 08:17:28;;;;;;;6.80;6.05;;;8.80;99.90;;;;;;4805073;29;20043;-77
2021/12/01 08:19:57;;;;;;;6.82;5.45;;;8.90;99.90;;;;;;4783133;29;20049;-77
2021/12/01 08:22:28;;;;;;;9.82;6.53;;;8.90;99.90;;;;;;4799999;29;20538;-82
2021/12/01 08:24:57;;;;;;;7.32;6.15;;;8.90;99.90;;;;;;4756398;29;20050;-81
2021/12/01 08:27:25;;;;;;;7.40;6.15;;;8.90;99.90;;;;;;4791067;29;20054;-82
2021/12/01 08:29:52;;;;;;;10.10;8.05;;;9.00;99.90;;;;;;4777421;29;20043;-77
2021/12/01 08:32:19;;;;;;;7.40;6.13;;;9.00;99.90;;;;;;4790238;29;20112;-78
2021/12/01 08:34:50;;;;;;;7.78;6.65;;;9.00;99.90;;;;;;4770466;29;20054;-77
2021/12/01 08:37:18;;;;;;;7.57;6.75;;;9.00;99.90;;;;;;4783199;29;20051;-78
2021/12/01 08:39:48;;;;;;;8.32;7.53;;;9.00;99.90;;;;;;4787373;29;20038;-78
2021/12/01 08:42:23;;;;;;;9.35;7.43;;;9.10;99.90;;;;;;4785388;29;20055;-77
2021/12/01 08:44:51;;;;;;;7.93;6.45;;;9.10;99.90;;;;;;4787963;29;20046;-78
2021/12/01 08:47:22;;;;;;;9.13;7.88;;;9.10;99.90;;;;;;4797184;29;20049;-77
2021/12/01 08:49:53;;;;;;;9.02;8.05;;;9.10;99.90;;;;;;4803407;29;20043;-80
2021/12/01 08:52:24;;;;;;;9.80;8.80;;;9.10;99.90;;;;;;4778005;29;20530;-82
2021/12/01 08:54:56;;;;;;;8.77;7.88;;;9.20;99.90;;;;;;4779417;29;20035;-79
2021/12/01 08:57:23;;;;;;;12.50;10.27;;;9.20;99.90;;;;;;4785002;29;20031;-78
2021/12/01 08:59:50;;;;;;;10.40;9.27;;;9.20;99.90;;;;;;4767766;29;20483;-78
2021/12/01 09:02:18;;;;;;;10.07;9.07;;;9.20;99.90;;;;;;4762069;29;20411;-78
2021/12/01 09:04:49;;;;;;;11.07;9.13;;;9.20;99.90;;;;;;4780879;29;20035;-79
2021/12/01 09:07:17;;;;;;;9.95;8.48;;;9.20;99.90;;;;;;4772931;29;20035;-79
2021/12/01 09:09:44;;;;;;;9.45;8.25;;;9.20;99.90;;;;;;4772152;29;20377;-79
2021/12/01 09:12:11;;;;;;;11.82;9.05;;;9.20;99.90;;;;;;4787809;29;20038;-78
2021/12/01 09:14:37;;;;;;;13.52;9.38;;;9.20;99.90;;;;;;4771847;29;20062;-82
2021/12/01 09:17:03;;;;;;;11.00;8.82;;;9.20;99.90;;;;;;4780139;29;20510;-81
2021/12/01 09:19:30;;;;;;;12.02;9.68;;;9.20;99.90;;;;;;4778285;29;20035;-82
2021/12/01 09:21:56;;;;;;;10.35;8.20;;;9.20;99.90;;;;;;4782050;29;20387;-81
2021/12/01 09:24:23;;;;;;;14.25;9.48;;;9.20;99.90;;;;;;4779024;29;20043;-80
2021/12/01 09:26:49;;;;;;;9.32;6.75;;;9.20;99.90;;;;;;4773035;29;20043;-81
2021/12/01 09:29:19;;;;;;;9.32;6.75;;;9.20;99.90;;;;;;4787931;29;20055;-81
2021/12/01 09:31:45;;;;;;;7.15;4.70;;;9.20;99.90;;;;;;4791204;29;20046;-81
2021/12/01 09:34:12;;;;;;;7.75;3.05;;;9.10;99.90;;;;;;4773705;29;20062;-78
2021/12/01 09:36:38;;;;;;;7.45;2.78;;;9.10;99.90;;;;;;4788822;29;20039;-79
2021/12/01 09:39:05;;;;;;;6.75;2.00;;;9.10;99.90;;;;;;4789148;29;20386;-79
2021/12/01 09:41:32;;;;;;;7.78;2.15;;;9.10;99.90;;;;;;4807978;29;20042;-79
2021/12/01 09:43:58;;;;;;;8.52;1.58;;;9.00;99.90;;;;;;4789154;29;20119;-79
2021/12/01 09:46:27;;;;;;;7.75;1.40;;;9.10;99.90;;;;;;4768396;29;20043;-79
2021/12/01 09:48:54;;;;;;;8.15;2.47;;;9.00;99.90;;;;;;4758033;29;20055;-79
2021/12/01 09:51:21;;;;;;;8.32;1.80;;;9.10;99.90;;;;;;4757736;29;20046;-79
2021/12/01 09:53:48;;;;;;;9.00;1.92;;;9.10;99.90;;;;;;4767138;29;20065;-78
2021/12/01 09:56:16;;;;;;;7.82;2.25;;;9.00;99.90;;;;;;4794224;29;20038;-79
2021/12/01 09:58:43;;;;;;;4.97;1.45;;;9.10;99.90;;;;;;4792972;29;20038;-83
2021/12/01 10:01:14;;;;;;;9.98;1.20;;;9.10;99.90;;;;;;4790860;29;20046;-82
2021/12/01 10:03:43;;;;;;;9.40;1.40;;;9.20;99.90;;;;;;4795837;29;20047;-82
2021/12/01 10:06:18;;;;;;;7.82;1.10;;;9.20;99.90;;;;;;4791458;29;20049;-83
2021/12/01 10:08:54;;;;;;;7.63;1.15;;;9.20;99.90;;;;;;4794008;29;20051;-83
2021/12/01 10:11:29;;;;;;;6.22;1.25;;;9.20;99.90;;;;;;4763447;29;20081;-83
2021/12/01 10:14:01;;;;;;;11.43;2.17;;;9.30;99.90;;;;;;4790499;29;20065;-83
2021/12/01 10:16:39;;;;;;;7.38;1.25;;;9.50;99.90;;;;;;4796853;29;20043;-83
2021/12/01 10:19:09;;;;;;;6.15;0.90;;;9.70;99.90;;;;;;4791881;29;20044;-84
2021/12/01 10:21:40;;;;;;;6.82;1.05;;;9.80;99.90;;;;;;4768066;29;20395;-82
2021/12/01 10:24:12;;;;;;;7.07;0.88;;;9.80;99.90;;;;;;4774619;29;20040;-78
2021/12/01 10:26:47;;;;;;;5.25;0.98;;;9.70;99.90;;;;;;4786933;29;20407;-78
2021/12/01 10:29:20;;;;;;;9.45;0.90;;;9.70;99.90;;;;;;4788119;29;20049;-77
2021/12/01 10:31:48;;;;;;;11.98;1.25;;;9.60;99.90;;;;;;4771274;29;20051;-77
2021/12/01 10:34:33;;;;;;;9.73;0.80;;;9.50;99.90;;;;;;4774279;29;20050;-78
2021/12/01 10:37:06;;;;;;;10.25;1.15;;;9.50;99.90;;;;;;4764857;29;20042;-77
2021/12/01 10:39:34;;;;;;;5.70;0.70;;;9.40;99.90;;;;;;4767462;29;20042;-77
2021/12/01 10:42:06;;;;;;;5.43;0.77;;;9.50;99.90;;;;;;4772842;29;20039;-77
2021/12/01 10:44:36;;;;;;;4.70;0.70;;;9.50;99.90;;;;;;4788197;29;20051;-77
2021/12/01 10:47:13;;;;;;;6.18;0.60;;;9.50;99.90;;;;;;4774731;29;20038;-78
2021/12/01 10:49:51;;;;;;;4.30;0.60;;;9.60;99.90;;;;;;4786785;29;20051;-78
2021/12/01 10:52:45;;;;;;;5.25;0.40;;;9.60;99.90;;;;;;4790755;29;20503;-77
2021/12/01 10:55:21;;;;;;;7.38;0.60;;;9.60;99.90;;;;;;4758034;29;20399;-78
2021/12/01 10:57:59;;;;;;;2.95;0.47;;;9.50;99.90;;;;;;4768796;29;20043;-78
2021/12/01 11:00:41;;;;;;;4.35;0.40;;;9.40;99.90;;;;;;4771697;29;20061;-78
2021/12/01 11:03:15;;;;;;;3.63;0.60;;;9.40;99.90;;;;;;4771248;29;20078;-80
2021/12/01 11:05:53;;;;;;;8.85;0.57;;;9.30;99.90;;;;;;4783798;29;20050;-76
2021/12/01 11:08:29;;;;;;;6.03;0.70;;;9.30;99.90;;;;;;4769745;29;20039;-76
2021/12/01 11:11:10;;;;;;;5.65;1.20;;;9.30;99.90;;;;;;4780996;29;20038;-77
2021/12/01 11:13:43;;;;;;;4.68;0.63;;;9.40;99.90;;;;;;4777623;29;20521;-77
2021/12/01 11:16:18;;;;;;;6.03;0.98;;;9.40;99.90;;;;;;4770373;29;20050;-77
2021/12/01 11:19:17;;;;;;;6.43;0.60;;;9.30;99.90;;;;;;4771076;29;20387;-77
2021/12/01 11:22:42;;;;;;;6.10;0.60;;;9.30;99.90;;;;;;4787356;29;20414;-77
2021/12/01 11:25:42;;;;;;;10.63;0.60;;;9.30;99.90;;;;;;4771520;29;20058;-78
2021/12/01 11:29:47;;;;;;;;;;;;;;;;;;;;;
2021/12/01 11:32:47;;;;;;;4.80;0.60;;;9.40;99.90;;;;;;4782469;29;20055;-77
2021/12/01 11:35:22;;;;;;;6.03;0.60;;;9.40;99.90;;;;;;4780411;29;20073;-77
2021/12/01 11:37:55;;;;;;;3.72;0.60;;;9.40;99.90;;;;;;4751981;29;20424;-77
2021/12/01 11:40:32;;;;;;;6.03;0.45;;;9.30;99.90;;;;;;4753358;29;20066;-77
2021/12/01 11:43:37;;;;;;;9.68;3.05;;;9.30;99.90;;;;;;4770637;29;20063;-77
2021/12/01 11:46:56;;;;;;;7.13;1.23;;;9.30;99.90;;;;;;4794789;29;20047;-77
2021/12/01 11:49:28;;;;;;;6.40;0.60;;;9.30;99.90;;;;;;4754947;29;20059;-77
2021/12/01 11:52:04;;;;;;;6.45;0.63;;;9.30;99.90;;;;;;4742006;29;20058;-77
2021/12/01 11:54:44;;;;;;;4.00;0.68;;;9.30;99.90;;;;;;4753728;29;20062;-78
2021/12/01 11:57:25;;;;;;;7.63;0.60;;;9.30;99.90;;;;;;4751187;29;20050;-78
2021/12/01 12:04:05;;;;;;;9.63;0.70;;;9.30;99.90;;;;;;4777592;29;20043;-79
2021/12/01 12:06:58;;;;;;;10.50;0.63;;;9.20;99.90;;;;;;4751843;29;20475;-78
2021/12/01 12:09:41;;;;;;;7.63;0.80;;;9.20;99.90;;;;;;4755867;29;20036;-78
2021/12/01 12:13:10;;;;;;;9.27;0.73;;;9.20;99.90;;;;;;4788330;29;20039;-78
2021/12/01 12:15:51;;;;;;;5.60;0.70;;;9.20;99.90;;;;;;4785193;29;20036;-79
2021/12/01 12:18:33;;;;;;;7.53;0.70;;;9.20;99.90;;;;;;4802659;29;20491;-79
2021/12/01 12:21:23;;;;;;;8.55;1.67;;;9.30;99.90;;;;;;4808892;29;20387;-80
2021/12/01 12:23:50;;;;;;;8.70;0.85;;;9.30;99.90;;;;;;4807624;29;20035;-79
2021/12/01 12:26:40;;;;;;;10.40;1.10;;;9.30;99.90;;;;;;4783956;29;20039;-79
2021/12/01 12:29:09;;;;;;;9.13;1.00;;;9.30;99.90;;;;;;4803313;29;20027;-79
2021/12/01 12:32:03;;;;;;;10.68;0.85;;;9.40;99.90;;;;;;4805468;29;20041;-81
2021/12/01 12:35:06;;;;;;;11.45;1.05;;;9.40;99.90;;;;;;4741890;30;20058;-81
2021/12/01 12:38:50;;;;;;;8.93;0.80;;;9.40;99.90;;;;;;4758633;30;20047;-81
2021/12/01 12:42:03;;;;;;;13.25;1.10;;;9.40;99.90;;;;;;4736733;30;20048;-79
2021/12/01 12:44:56;;;;;;;12.32;1.50;;;9.40;99.90;;;;;;4713510;30;20041;-81
2021/12/01 12:48:32;;;;;;;9.05;1.00;;;9.40;99.90;;;;;;4702910;29;20059;-81
2021/12/01 12:51:50;;;;;;;9.52;1.00;;;9.40;99.90;;;;;;4761648;29;20043;-81
2021/12/01 12:54:50;;;;;;;8.95;0.90;;;9.40;99.90;;;;;;4758277;29;20055;-79
2021/12/01 13:02:07;;;;;;;;;;;;;;;;;;;;;
2021/12/01 13:04:54;;;;;;;9.93;1.30;;;9.40;99.90;;;;;;4755290;29;20043;-80
2021/12/01 13:07:32;;;;;;;4.55;0.50;;;9.40;99.90;;;;;;4774567;29;20050;-80
2021/12/01 13:10:15;;;;;;;9.02;0.68;;;9.40;99.90;;;;;;4774985;29;20046;-82
2021/12/01 13:12:45;;;;;;;;;;;9.40;99.90;;;;;;4774568;29;20066;-82
2021/12/01 13:15:35;;;;;;;6.78;0.73;;;9.30;99.90;;;;;;4790333;29;19990;-81
2021/12/01 13:18:03;;;;;;;12.20;1.05;;;9.30;99.90;;;;;;4770101;29;20047;-80
2021/12/01 13:20:51;;;;;;;12.02;1.08;;;9.40;99.90;;;;;;4803664;29;20039;-81
2021/12/01 13:23:24;;;;;;;4.38;0.90;;;9.40;99.90;;;;;;4801741;29;20058;-81
2021/12/01 13:26:05;;;;;;;5.10;0.95;;;9.40;99.90;;;;;;4772396;29;20448;-82
2021/12/01 13:28:33;;;;;;;7.13;0.73;;;9.40;99.90;;;;;;4783548;29;20366;-83
2021/12/01 13:31:31;;;;;;;9.05;0.80;;;9.40;99.90;;;;;;4777224;29;20042;-83
2021/12/01 13:34:03;;;;;;;7.30;0.80;;;9.30;99.90;;;;;;4774915;29;20403;-77